This is the latest recevied weather packets stored in our database for station/object EA1GGY-1. If no packets are shown the sender has not sent any weather packets the latest 10 day(s).
| Time | Temp. | Humidity | Pressure | Rain* | Wind** | Luminosity | Snow |
|---|---|---|---|---|---|---|---|
| 1778177371 | 12.78° C | 61% | 1004.7 hPa | - | - | - | - |
| 1778176771 | 12.78° C | 59% | 1004.6 hPa | - | - | - | - |
| 1778176170 | 12.78° C | 57% | 1004.5 hPa | - | - | - | - |
| 1778175569 | 13.33° C | 58% | 1004.6 hPa | - | - | - | - |
| 1778174968 | 13.33° C | 57% | 1004.6 hPa | - | - | - | - |
| 1778174368 | 13.33° C | 57% | 1004.7 hPa | - | - | - | - |
| 1778173766 | 13.33° C | 59% | 1004.8 hPa | - | - | - | - |
| 1778173167 | 13.33° C | 59% | 1004.9 hPa | - | - | - | - |
| 1778172565 | 12.78° C | 59% | 1004.9 hPa | - | - | - | - |
| 1778171964 | 12.78° C | 59% | 1005 hPa | - | - | - | - |
| 1778171363 | 12.78° C | 60% | 1005.1 hPa | - | - | - | - |
| 1778170763 | 12.78° C | 66% | 1005.3 hPa | - | - | - | - |
| 1778170161 | 12.22° C | 62% | 1005.2 hPa | - | - | - | - |
| 1778169560 | 12.22° C | 64% | 1005.3 hPa | - | - | - | - |
| 1778168959 | 11.67° C | 66% | 1005.8 hPa | - | - | - | - |
| 1778168360 | 12.22° C | 66% | 1005.8 hPa | - | - | - | - |
| 1778167758 | 11.67° C | 69% | 1005.9 hPa | - | - | - | - |
| 1778167157 | 11.67° C | 68% | 1006 hPa | - | - | - | - |
| 1778166556 | 11.67° C | 71% | 1006.2 hPa | - | - | - | - |
| 1778165955 | 12.22° C | 68% | 1006.1 hPa | - | - | - | - |
| 1778165354 | 12.78° C | 66% | 1006.1 hPa | - | - | - | - |
| 1778164754 | 12.22° C | 64% | 1006.1 hPa | - | - | - | - |
| 1778164153 | 13.33° C | 63% | 1005.9 hPa | - | - | - | - |
| 1778163552 | 13.33° C | 53% | 1005.5 hPa | - | - | - | - |
| 1778162951 | 15° C | 47% | 1005.1 hPa | - | - | - | - |
* Rain since midnight (hover to see other rain measurements)
** Current wind speed in m/s (hover to see current wind gust speed)